createdAt,value
2018-07-27T00:00:50.845Z,49.20
2018-07-27T00:02:31.536Z,49.94
2018-07-27T00:04:06.676Z,49.99
2018-07-27T00:05:44.442Z,49.82
2018-07-27T00:07:20.649Z,50.11
2018-07-27T00:08:57.501Z,50.38
2018-07-27T00:10:33.792Z,49.71
2018-07-27T00:12:09.544Z,49.86
2018-07-27T00:13:45.243Z,52.23
2018-07-27T00:15:23.449Z,50.58
2018-07-27T00:17:00.190Z,50.50
2018-07-27T00:18:36.402Z,51.47
2018-07-27T00:20:13.826Z,50.83
2018-07-27T00:21:51.336Z,50.93
2018-07-27T00:23:26.765Z,50.29
2018-07-27T00:25:04.466Z,50.22
2018-07-27T00:26:39.794Z,49.56
2018-07-27T00:28:16.369Z,50.22
2018-07-27T00:29:51.607Z,49.70
2018-07-27T00:31:27.367Z,49.45
2018-07-27T00:33:11.399Z,49.42
2018-07-27T00:34:53.698Z,49.66
2018-07-27T00:36:35.290Z,49.52
2018-07-27T00:38:13.767Z,49.59
2018-07-27T00:39:49.670Z,49.51
2018-07-27T00:41:30.726Z,50.00
2018-07-27T00:43:06.507Z,49.59
2018-07-27T00:44:44.071Z,49.95
2018-07-27T00:46:19.576Z,49.56
2018-07-27T00:47:59.613Z,49.87
2018-07-27T00:49:36.040Z,49.37
2018-07-27T00:51:13.195Z,48.92
2018-07-27T00:52:51.180Z,49.07
2018-07-27T00:54:30.551Z,49.78
2018-07-27T00:56:05.910Z,49.03
2018-07-27T00:57:42.642Z,49.55
2018-07-27T00:59:18.884Z,48.92
2018-07-27T01:00:55.814Z,49.51
2018-07-27T01:02:34.695Z,50.17
2018-07-27T01:04:19.593Z,49.54
2018-07-27T01:05:59.357Z,49.93
2018-07-27T01:07:34.623Z,50.59
2018-07-27T01:09:12.193Z,50.30
2018-07-27T01:10:49.939Z,50.25
2018-07-27T01:12:25.223Z,49.67
2018-07-27T01:14:03.648Z,50.73
2018-07-27T01:15:39.573Z,50.31
2018-07-27T01:17:16.098Z,49.49
2018-07-27T01:18:51.702Z,50.25
2018-07-27T01:20:27.004Z,49.91
2018-07-27T01:22:02.194Z,49.69
2018-07-27T01:23:38.240Z,49.30
2018-07-27T01:25:13.414Z,49.51
2018-07-27T01:26:49.915Z,50.18
2018-07-27T01:28:25.105Z,49.64
2018-07-27T01:30:05.042Z,48.08
2018-07-27T01:31:40.185Z,48.98
2018-07-27T01:33:15.320Z,47.90
2018-07-27T01:34:52.637Z,47.73
2018-07-27T01:36:28.861Z,47.74
2018-07-27T01:38:03.975Z,48.49
2018-07-27T01:39:39.374Z,48.51
2018-07-27T01:41:22.140Z,47.84
2018-07-27T01:42:57.784Z,47.81
2018-07-27T01:44:39.738Z,46.95
2018-07-27T01:46:15.874Z,47.97
2018-07-27T01:47:52.155Z,47.72
2018-07-27T01:49:34.048Z,47.33
2018-07-27T01:51:10.261Z,46.89
2018-07-27T01:52:52.574Z,47.37
2018-07-27T01:54:28.578Z,46.75
2018-07-27T01:56:04.297Z,46.59
2018-07-27T01:57:41.220Z,46.04
2018-07-27T01:59:18.238Z,46.55
2018-07-27T02:00:53.405Z,46.56
2018-07-27T02:02:28.532Z,46.72
2018-07-27T02:04:03.866Z,46.66
2018-07-27T02:05:40.430Z,46.02
2018-07-27T02:07:16.114Z,46.00
2018-07-27T02:08:53.217Z,46.31
2018-07-27T02:10:28.343Z,46.40
2018-07-27T02:12:04.417Z,47.01
2018-07-27T02:13:41.382Z,47.46
2018-07-27T02:15:16.812Z,46.35
2018-07-27T02:16:52.097Z,47.04
2018-07-27T02:18:28.432Z,46.50
2018-07-27T02:20:05.589Z,47.13
2018-07-27T02:21:42.301Z,47.03
2018-07-27T02:23:19.658Z,46.32
2018-07-27T02:24:54.864Z,46.35
2018-07-27T02:26:30.474Z,47.11
2018-07-27T02:28:07.509Z,46.92
2018-07-27T02:29:44.716Z,47.19
2018-07-27T02:31:21.296Z,46.84
2018-07-27T02:32:58.581Z,47.61
2018-07-27T02:34:35.317Z,47.79
2018-07-27T02:36:10.536Z,47.95
2018-07-27T02:37:47.469Z,47.39
2018-07-27T02:39:22.775Z,47.36
2018-07-27T02:40:57.940Z,47.19
2018-07-27T02:42:33.472Z,47.20
2018-07-27T02:44:09.029Z,47.39
2018-07-27T02:45:44.697Z,47.71
2018-07-27T02:47:19.882Z,47.82
2018-07-27T02:48:55.147Z,47.41
2018-07-27T02:50:30.573Z,47.18
2018-07-27T02:52:05.733Z,47.90
2018-07-27T02:53:42.616Z,48.17
2018-07-27T02:55:17.941Z,48.13
2018-07-27T02:56:53.190Z,48.20
2018-07-27T02:58:28.918Z,48.28
2018-07-27T03:00:07.468Z,47.74
2018-07-27T03:01:44.035Z,48.03
2018-07-27T03:03:19.952Z,47.70
2018-07-27T03:04:56.741Z,48.58
2018-07-27T03:06:39.461Z,47.88
2018-07-27T03:08:15.370Z,48.07
2018-07-27T03:09:50.841Z,48.29
2018-07-27T03:11:26.993Z,48.99
2018-07-27T03:13:02.406Z,48.37
2018-07-27T03:14:37.737Z,48.87
2018-07-27T03:16:12.977Z,47.62
2018-07-27T03:17:48.191Z,47.97
2018-07-27T03:19:24.168Z,47.52
2018-07-27T03:20:59.595Z,48.33
2018-07-27T03:22:34.713Z,48.15
2018-07-27T03:24:10.125Z,47.36
2018-07-27T03:25:45.277Z,47.96
2018-07-27T03:27:20.551Z,47.96
2018-07-27T03:28:57.184Z,47.59
2018-07-27T03:30:32.996Z,47.82
2018-07-27T03:32:08.246Z,48.29
2018-07-27T03:33:44.282Z,47.88
2018-07-27T03:35:22.406Z,48.78
2018-07-27T03:37:01.115Z,48.20
2018-07-27T03:38:42.547Z,46.68
2018-07-27T03:40:18.156Z,47.73
2018-07-27T03:41:54.426Z,47.45
2018-07-27T03:43:33.787Z,48.07
2018-07-27T03:45:09.527Z,47.49
2018-07-27T03:46:44.709Z,47.30
2018-07-27T03:48:19.860Z,47.76
2018-07-27T03:49:55.627Z,47.93
2018-07-27T03:51:35.499Z,47.70
2018-07-27T03:53:11.334Z,48.95
2018-07-27T03:54:46.539Z,49.33
2018-07-27T03:56:21.581Z,48.89
2018-07-27T03:57:56.782Z,47.76
2018-07-27T03:59:33.111Z,49.58
2018-07-27T04:01:08.317Z,49.28
2018-07-27T04:02:43.944Z,49.78
2018-07-27T04:04:19.139Z,48.92
2018-07-27T04:05:54.369Z,48.28
2018-07-27T04:07:29.974Z,49.10
2018-07-27T04:09:07.459Z,49.15
2018-07-27T04:10:43.191Z,48.68
2018-07-27T04:12:18.638Z,49.44
2018-07-27T04:13:53.840Z,48.97
2018-07-27T04:15:29.058Z,49.88
2018-07-27T04:17:05.149Z,49.27
2018-07-27T04:18:40.310Z,50.00
2018-07-27T04:20:15.582Z,49.32
2018-07-27T04:21:51.693Z,48.60
2018-07-27T04:23:26.817Z,49.84
2018-07-27T04:25:02.072Z,49.13
2018-07-27T04:26:37.389Z,49.70
2018-07-27T04:28:12.722Z,48.84
2018-07-27T04:29:48.328Z,49.10
2018-07-27T04:31:23.508Z,49.20
2018-07-27T04:32:58.712Z,49.04
2018-07-27T04:34:33.945Z,49.85
2018-07-27T04:36:09.426Z,49.33
2018-07-27T04:37:45.853Z,48.92
2018-07-27T04:39:22.707Z,49.02
2018-07-27T04:40:57.842Z,49.77
2018-07-27T04:42:33.842Z,49.04
2018-07-27T04:44:10.737Z,48.78
2018-07-27T04:45:45.829Z,49.05
2018-07-27T04:47:21.227Z,48.47
2018-07-27T04:48:56.303Z,48.10
2018-07-27T04:50:31.426Z,49.08
2018-07-27T04:52:08.174Z,48.61
2018-07-27T04:53:44.149Z,48.38
2018-07-27T04:55:20.058Z,48.42
2018-07-27T04:56:56.400Z,48.24
2018-07-27T04:58:31.452Z,47.49
2018-07-27T05:00:08.683Z,47.94
2018-07-27T05:01:45.434Z,47.00
2018-07-27T05:03:21.149Z,47.53
2018-07-27T05:05:02.489Z,46.64
2018-07-27T05:06:38.160Z,47.03
2018-07-27T05:08:15.973Z,47.01
2018-07-27T05:09:52.592Z,45.64
2018-07-27T05:11:29.668Z,46.17
2018-07-27T05:13:04.903Z,45.30
2018-07-27T05:14:41.006Z,45.65
2018-07-27T05:16:16.162Z,45.26
2018-07-27T05:17:52.963Z,44.94
2018-07-27T05:19:29.473Z,45.27
2018-07-27T05:21:06.677Z,45.79
2018-07-27T05:22:43.985Z,45.26
2018-07-27T05:24:19.425Z,45.03
2018-07-27T05:25:55.092Z,44.01
2018-07-27T05:27:30.314Z,44.13
2018-07-27T05:29:05.504Z,44.65
2018-07-27T05:30:44.919Z,43.55
2018-07-27T05:32:20.172Z,43.46
2018-07-27T05:33:55.299Z,43.20
2018-07-27T05:35:31.594Z,43.01
2018-07-27T05:37:07.546Z,42.21
2018-07-27T05:38:42.838Z,41.99
2018-07-27T05:40:18.020Z,41.73
2018-07-27T05:41:56.363Z,41.76
2018-07-27T05:43:31.525Z,41.75
2018-07-27T05:45:08.940Z,41.36
2018-07-27T05:46:44.064Z,40.19
2018-07-27T05:48:19.187Z,40.88
2018-07-27T05:49:58.612Z,39.37
2018-07-27T05:51:36.851Z,39.37
2018-07-27T05:53:12.038Z,39.69
2018-07-27T05:54:47.282Z,38.44
2018-07-27T05:56:22.432Z,38.66
2018-07-27T05:58:00.019Z,38.96
2018-07-27T05:59:36.269Z,38.01
2018-07-27T06:01:11.892Z,37.48
2018-07-27T06:02:47.207Z,38.54
2018-07-27T06:04:22.436Z,37.36
2018-07-27T06:05:58.324Z,37.60
2018-07-27T06:07:39.281Z,37.18
2018-07-27T06:09:15.429Z,36.97
2018-07-27T06:10:50.613Z,36.38
2018-07-27T06:12:30.157Z,36.67
2018-07-27T06:14:08.003Z,36.64
2018-07-27T06:15:44.568Z,36.25
2018-07-27T06:17:19.695Z,36.76
2018-07-27T06:18:55.264Z,35.78
2018-07-27T06:20:31.244Z,35.33
2018-07-27T06:22:11.917Z,35.10
2018-07-27T06:23:47.431Z,34.10
2018-07-27T06:25:23.263Z,35.01
2018-07-27T06:27:00.310Z,33.49
2018-07-27T06:28:37.102Z,33.33
2018-07-27T06:30:15.221Z,33.52
2018-07-27T06:31:55.653Z,33.40
2018-07-27T06:33:31.192Z,34.10
2018-07-27T06:35:09.391Z,32.77
2018-07-27T06:36:47.121Z,32.74
2018-07-27T06:38:26.364Z,33.45
2018-07-27T06:40:06.981Z,33.29
2018-07-27T06:41:52.951Z,34.09
2018-07-27T06:43:30.178Z,32.92
2018-07-27T06:45:09.907Z,33.38
2018-07-27T06:46:46.085Z,32.87
2018-07-27T06:48:25.506Z,32.94
2018-07-27T06:52:03.085Z,33.53
2018-07-27T06:53:38.609Z,31.87
2018-07-27T06:55:16.458Z,32.37
2018-07-27T06:56:51.786Z,33.46
2018-07-27T06:58:34.298Z,31.57
2018-07-27T07:00:11.194Z,31.29
2018-07-27T07:01:48.615Z,34.07
2018-07-27T07:03:25.896Z,31.98
2018-07-27T07:05:01.293Z,31.97
2018-07-27T07:06:38.303Z,32.85
2018-07-27T07:08:14.670Z,31.59
2018-07-27T07:09:51.516Z,31.79
2018-07-27T07:11:27.017Z,31.23
2018-07-27T07:13:02.746Z,31.71
2018-07-27T07:14:39.773Z,32.42
2018-07-27T07:16:16.793Z,31.01
2018-07-27T07:17:52.355Z,30.70
2018-07-27T07:19:33.532Z,30.81
2018-07-27T07:21:10.515Z,31.68
2018-07-27T07:22:47.316Z,31.83
2018-07-27T07:24:22.661Z,30.54
2018-07-27T07:25:59.105Z,31.42
2018-07-27T07:27:34.319Z,30.74
2018-07-27T07:29:09.689Z,31.50
2018-07-27T07:30:45.170Z,31.45
2018-07-27T07:32:22.253Z,31.72
2018-07-27T07:33:57.710Z,31.84
2018-07-27T07:35:35.178Z,32.00
2018-07-27T07:37:13.258Z,31.91
2018-07-27T07:38:51.607Z,31.03
2018-07-27T07:40:27.558Z,30.69
2018-07-27T07:42:03.546Z,30.22
2018-07-27T07:43:45.805Z,29.91
2018-07-27T07:45:23.614Z,30.07
2018-07-27T07:47:02.406Z,29.14
2018-07-27T07:48:38.921Z,30.28
2018-07-27T07:50:17.234Z,30.91
2018-07-27T07:51:57.721Z,30.63
2018-07-27T07:53:33.480Z,29.90
2018-07-27T07:55:09.029Z,28.77
2018-07-27T07:56:44.307Z,28.84
2018-07-27T07:58:22.799Z,28.68
2018-07-27T08:00:05.912Z,28.32
2018-07-27T08:01:45.663Z,29.71
2018-07-27T08:03:21.257Z,27.73
2018-07-27T08:04:58.370Z,29.20
2018-07-27T08:06:33.989Z,28.50
2018-07-27T08:08:10.960Z,28.50
2018-07-27T08:09:51.785Z,28.07
2018-07-27T08:11:29.037Z,27.17
2018-07-27T08:13:29.514Z,27.86
2018-07-27T08:15:13.680Z,29.20
2018-07-27T08:16:59.410Z,27.98
2018-07-27T08:18:35.767Z,28.13
2018-07-27T08:20:19.220Z,28.22
2018-07-27T08:22:01.189Z,28.42
2018-07-27T08:23:48.447Z,28.08
2018-07-27T08:27:24.278Z,27.72
2018-07-27T08:29:20.051Z,27.55
2018-07-27T08:31:05.628Z,27.05
2018-07-27T08:32:44.622Z,26.93
2018-07-27T08:34:26.818Z,27.19
2018-07-27T08:36:08.096Z,27.46
2018-07-27T08:37:48.025Z,26.35
2018-07-27T08:39:26.452Z,27.73
2018-07-27T08:41:04.762Z,28.79
2018-07-27T08:42:42.723Z,27.08
2018-07-27T08:44:22.838Z,28.02
2018-07-27T08:46:05.543Z,26.86
2018-07-27T08:47:44.489Z,26.90
2018-07-27T08:49:21.283Z,27.18
2018-07-27T08:50:58.746Z,28.22
2018-07-27T08:52:39.265Z,28.89
2018-07-27T08:54:19.510Z,26.87
2018-07-27T08:56:00.587Z,27.79
2018-07-27T08:57:40.867Z,27.43
2018-07-27T08:59:19.597Z,25.94
2018-07-27T09:01:00.806Z,26.04
2018-07-27T09:02:44.347Z,26.96
2018-07-27T09:04:22.448Z,27.72
2018-07-27T09:05:59.070Z,26.46
2018-07-27T09:07:35.908Z,26.90
2018-07-27T09:09:17.861Z,26.65
2018-07-27T09:10:57.669Z,27.80
2018-07-27T09:12:34.823Z,26.24
2018-07-27T09:14:10.510Z,27.47
2018-07-27T09:16:07.357Z,27.48
2018-07-27T09:17:47.794Z,26.68
2018-07-27T09:19:23.473Z,26.96
2018-07-27T09:21:04.679Z,26.14
2018-07-27T09:23:06.276Z,26.24
2018-07-27T09:24:56.046Z,24.95
2018-07-27T09:26:51.782Z,24.87
2018-07-27T09:28:45.367Z,24.86
2018-07-27T09:30:41.462Z,25.81
2018-07-27T09:32:27.776Z,24.74
2018-07-27T09:36:19.561Z,25.03
2018-07-27T09:37:57.574Z,24.48
2018-07-27T09:39:36.197Z,23.46
2018-07-27T09:41:20.731Z,24.32
2018-07-27T09:43:00.641Z,25.23
2018-07-27T09:45:06.327Z,24.78
2018-07-27T09:47:03.116Z,23.96
2018-07-27T09:50:57.120Z,25.02
2018-07-27T09:52:40.761Z,22.68
2018-07-27T09:54:28.358Z,23.32
2018-07-27T09:56:23.780Z,23.10
2018-07-27T09:58:00.916Z,22.72
2018-07-27T09:59:50.580Z,21.72
2018-07-27T10:01:44.429Z,21.88
2018-07-27T10:03:27.415Z,22.26
2018-07-27T10:05:12.494Z,21.69
2018-07-27T10:06:51.241Z,20.66
2018-07-27T10:08:44.553Z,20.71
2018-07-27T10:10:44.504Z,21.87
2018-07-27T10:12:30.720Z,20.95
2018-07-27T10:14:17.045Z,19.13
2018-07-27T10:15:56.498Z,20.82
2018-07-27T10:17:36.937Z,20.12
2018-07-27T10:19:17.149Z,20.51
2018-07-27T10:20:55.393Z,21.86
2018-07-27T10:22:43.295Z,21.23
2018-07-27T10:24:32.093Z,21.20
2018-07-27T10:26:22.075Z,20.50
2018-07-27T10:28:17.161Z,21.29
2018-07-27T10:29:53.704Z,20.44
2018-07-27T10:31:36.363Z,19.54
2018-07-27T10:33:18.258Z,19.49
2018-07-27T10:35:16.796Z,18.69
2018-07-27T10:37:05.122Z,18.41
2018-07-27T10:38:54.972Z,20.48
2018-07-27T10:40:43.824Z,19.52
2018-07-27T10:42:27.850Z,20.55
2018-07-27T10:44:14.380Z,19.55
2018-07-27T10:45:53.262Z,19.41
2018-07-27T10:49:40.779Z,19.67
2018-07-27T10:53:10.750Z,20.01
2018-07-27T10:54:51.388Z,18.80
2018-07-27T10:56:45.477Z,19.98
2018-07-27T10:58:22.061Z,19.66
2018-07-27T10:59:58.264Z,19.80
2018-07-27T11:01:39.983Z,18.04
2018-07-27T11:03:15.434Z,18.58
2018-07-27T11:06:54.809Z,20.25
2018-07-27T11:08:40.315Z,18.60
2018-07-27T11:10:22.959Z,19.23
2018-07-27T11:12:29.799Z,18.82
2018-07-27T11:14:09.012Z,18.56
2018-07-27T11:15:44.849Z,18.83
2018-07-27T11:17:21.267Z,18.92
2018-07-27T11:18:59.355Z,17.78
2018-07-27T11:20:43.204Z,18.02
2018-07-27T11:22:26.796Z,17.41
2018-07-27T11:24:05.524Z,16.94
2018-07-27T11:25:44.114Z,18.26
2018-07-27T11:31:19.672Z,20.82
2018-07-27T11:32:58.744Z,19.44
2018-07-27T11:34:35.540Z,18.03
2018-07-27T11:36:15.316Z,18.02
2018-07-27T11:37:54.249Z,20.41
2018-07-27T11:39:36.972Z,18.50
2018-07-27T11:41:15.087Z,18.67
2018-07-27T11:42:53.130Z,18.32
2018-07-27T11:46:31.302Z,18.10
2018-07-27T11:48:19.617Z,17.35
2018-07-27T11:50:10.647Z,17.79
2018-07-27T11:53:56.826Z,19.08
2018-07-27T11:55:47.400Z,17.59
2018-07-27T11:57:31.274Z,18.95
2018-07-27T11:59:08.449Z,20.04
2018-07-27T12:00:54.107Z,19.99
2018-07-27T12:02:39.354Z,18.86
2018-07-27T12:04:28.196Z,18.95
2018-07-27T12:06:08.408Z,18.77
2018-07-27T12:07:54.175Z,18.19
2018-07-27T12:09:32.293Z,19.35
2018-07-27T12:11:15.016Z,19.87
2018-07-27T12:12:52.713Z,20.35
2018-07-27T12:14:31.221Z,20.14
2018-07-27T12:16:09.169Z,20.09
2018-07-27T12:17:47.628Z,19.83
2018-07-27T12:19:30.292Z,21.45
2018-07-27T12:21:15.040Z,19.96
2018-07-27T12:22:51.844Z,20.87
2018-07-27T12:24:27.941Z,20.52
2018-07-27T12:26:04.176Z,19.93
2018-07-27T12:27:41.291Z,20.68
2018-07-27T12:29:18.604Z,20.91
2018-07-27T12:30:55.189Z,18.99
2018-07-27T12:32:34.258Z,20.80
2018-07-27T12:34:10.089Z,18.79
2018-07-27T12:35:45.924Z,19.69
2018-07-27T12:37:23.746Z,19.78
2018-07-27T12:38:59.524Z,19.64
2018-07-27T12:40:35.416Z,18.83
2018-07-27T12:42:11.453Z,20.13
2018-07-27T12:44:00.018Z,19.80
2018-07-27T12:45:35.504Z,20.58
2018-07-27T12:47:18.202Z,19.23
2018-07-27T12:48:54.137Z,18.32
2018-07-27T12:50:31.130Z,17.76
2018-07-27T12:52:06.793Z,18.65
2018-07-27T12:53:46.120Z,18.37
2018-07-27T12:55:26.187Z,18.17
2018-07-27T12:57:03.533Z,17.73
2018-07-27T12:58:40.463Z,19.12
2018-07-27T13:00:24.206Z,18.34
2018-07-27T13:02:05.234Z,18.32
2018-07-27T13:03:56.143Z,17.70
2018-07-27T13:05:41.207Z,18.65
2018-07-27T13:07:24.398Z,20.08
2018-07-27T13:09:01.626Z,19.41
2018-07-27T13:10:45.764Z,18.44
2018-07-27T13:12:21.594Z,18.74
2018-07-27T13:13:59.276Z,19.67
2018-07-27T13:15:36.221Z,19.38
2018-07-27T13:17:13.371Z,18.92
2018-07-27T13:18:49.333Z,20.48
2018-07-27T13:20:25.529Z,18.77
2018-07-27T13:22:02.612Z,18.03
2018-07-27T13:23:38.020Z,20.38
2018-07-27T13:25:15.011Z,18.53
2018-07-27T13:26:50.262Z,18.59
2018-07-27T13:28:26.494Z,17.90
2018-07-27T13:30:03.487Z,19.31
2018-07-27T13:31:50.284Z,18.60
2018-07-27T13:33:26.091Z,18.59
2018-07-27T13:35:05.125Z,19.77
2018-07-27T13:36:41.919Z,19.68
2018-07-27T13:38:18.177Z,19.50
2018-07-27T13:39:56.255Z,19.06
2018-07-27T13:41:45.618Z,20.14
2018-07-27T13:43:22.310Z,21.04
2018-07-27T13:44:57.819Z,20.81
2018-07-27T13:46:33.432Z,21.08
2018-07-27T13:48:11.276Z,20.83
2018-07-27T13:49:46.986Z,21.94
2018-07-27T13:51:24.088Z,21.12
2018-07-27T13:52:59.428Z,19.87
2018-07-27T13:54:37.065Z,19.73
2018-07-27T13:56:13.204Z,20.27
2018-07-27T13:57:48.637Z,19.80
2018-07-27T13:59:25.321Z,20.08
2018-07-27T14:01:03.833Z,20.72
2018-07-27T14:02:43.524Z,20.00
2018-07-27T14:04:20.119Z,20.16
2018-07-27T14:06:00.728Z,19.08
2018-07-27T14:07:37.191Z,19.25
2018-07-27T14:09:16.692Z,20.74
2018-07-27T14:10:57.247Z,19.69
2018-07-27T14:12:34.281Z,19.06
2018-07-27T14:14:10.500Z,19.57
2018-07-27T14:15:53.685Z,18.96
2018-07-27T14:17:33.859Z,20.17
2018-07-27T14:19:11.140Z,20.03
2018-07-27T14:20:55.434Z,20.73
2018-07-27T14:22:33.925Z,20.17
2018-07-27T14:24:40.743Z,20.03
2018-07-27T14:26:26.035Z,20.76
2018-07-27T14:28:04.704Z,19.92
2018-07-27T14:30:17.525Z,21.70
2018-07-27T14:31:59.275Z,22.68
2018-07-27T14:35:27.166Z,22.51
2018-07-27T14:37:03.329Z,21.60
2018-07-27T14:38:39.815Z,21.12
2018-07-27T14:40:22.783Z,21.49
2018-07-27T14:41:59.358Z,20.88
2018-07-27T14:43:59.240Z,21.01
2018-07-27T14:46:05.353Z,22.15
2018-07-27T14:47:50.786Z,20.37
2018-07-27T14:49:32.843Z,21.22
2018-07-27T14:51:21.178Z,21.10
2018-07-27T14:53:23.630Z,20.85
2018-07-27T14:55:03.649Z,22.17
2018-07-27T14:56:58.619Z,23.02
2018-07-27T14:58:38.349Z,22.20
2018-07-27T15:00:25.295Z,23.15
2018-07-27T15:02:40.201Z,22.92
2018-07-27T15:04:38.906Z,22.76
2018-07-27T15:06:41.286Z,22.54
2018-07-27T15:08:25.953Z,22.91
2018-07-27T15:10:19.342Z,22.88
2018-07-27T15:12:10.606Z,22.92
2018-07-27T15:13:46.628Z,22.12
2018-07-27T15:15:26.122Z,22.57
2018-07-27T15:20:01.817Z,23.59
2018-07-27T15:21:54.268Z,24.32
2018-07-27T15:23:31.333Z,24.47
2018-07-27T15:25:08.319Z,24.28
2018-07-27T15:26:44.104Z,23.95
2018-07-27T15:28:22.105Z,24.46
2018-07-27T15:30:25.254Z,23.57
2018-07-27T15:32:25.169Z,23.96
2018-07-27T15:34:35.413Z,23.54
2018-07-27T15:39:08.770Z,23.65
2018-07-27T15:41:10.461Z,23.31
2018-07-27T15:43:15.364Z,23.12
2018-07-27T15:45:07.750Z,21.32
2018-07-27T15:46:47.972Z,21.11
2018-07-27T15:48:25.331Z,21.28
2018-07-27T15:50:05.697Z,21.23
2018-07-27T15:51:53.982Z,21.25
2018-07-27T15:53:55.634Z,21.39
2018-07-27T15:55:33.135Z,21.32
2018-07-27T15:57:25.336Z,20.96
2018-07-27T15:59:10.789Z,20.04
2018-07-27T16:03:28.410Z,19.40
2018-07-27T16:05:15.656Z,20.51
2018-07-27T16:07:22.049Z,20.69
2018-07-27T16:17:29.200Z,20.38
2018-07-27T16:19:08.297Z,20.52
2018-07-27T16:20:48.822Z,19.82
2018-07-27T16:22:31.713Z,20.31
2018-07-27T16:24:16.932Z,19.28
2018-07-27T16:25:58.040Z,20.19
2018-07-27T16:27:42.053Z,19.00
2018-07-27T16:29:22.944Z,20.49
2018-07-27T16:31:00.619Z,20.08
2018-07-27T16:32:43.193Z,20.44
2018-07-27T16:34:47.013Z,20.07
2018-07-27T16:38:41.737Z,20.80
2018-07-27T16:40:28.647Z,21.05
2018-07-27T16:42:58.455Z,20.99
2018-07-27T16:45:00.971Z,21.05
2018-07-27T16:46:53.090Z,21.40
2018-07-27T16:48:38.667Z,21.52
2018-07-27T16:50:19.631Z,20.15
2018-07-27T16:51:56.205Z,19.79
2018-07-27T16:53:33.768Z,20.35
2018-07-27T16:55:12.996Z,20.25
2018-07-27T16:56:48.361Z,20.64
2018-07-27T16:58:27.721Z,20.92
2018-07-27T17:00:07.299Z,20.03
2018-07-27T17:01:51.835Z,20.34
2018-07-27T17:03:43.619Z,21.12
2018-07-27T17:07:38.637Z,19.59
2018-07-27T17:09:23.173Z,19.44
2018-07-27T17:11:03.313Z,21.37
2018-07-27T17:12:40.993Z,21.66
2018-07-27T17:14:40.680Z,20.12
2018-07-27T17:18:37.293Z,20.90
2018-07-27T17:20:30.034Z,20.81
2018-07-27T17:25:03.330Z,23.31
2018-07-27T17:27:22.012Z,21.80
2018-07-27T17:29:09.482Z,20.91
2018-07-27T17:30:51.808Z,21.93
2018-07-27T17:32:34.826Z,20.96
2018-07-27T17:34:20.627Z,20.89
2018-07-27T17:36:03.335Z,22.65
2018-07-27T17:37:56.233Z,21.03
2018-07-27T17:39:45.344Z,21.64
2018-07-27T17:41:54.007Z,22.12
2018-07-27T17:43:55.751Z,22.92
2018-07-27T17:45:34.048Z,22.66
2018-07-27T17:47:42.630Z,22.70
2018-07-27T17:49:23.006Z,23.56
2018-07-27T17:51:06.149Z,22.31
2018-07-27T17:55:12.601Z,22.83
2018-07-27T17:59:22.596Z,24.27
2018-07-27T18:00:57.784Z,22.94
2018-07-27T18:02:38.651Z,23.83
2018-07-27T18:04:29.280Z,23.63
2018-07-27T18:06:57.187Z,23.94
2018-07-27T18:08:39.273Z,23.80
2018-07-27T18:10:15.727Z,23.82
2018-07-27T18:11:53.520Z,24.99
2018-07-27T18:14:16.303Z,24.50
2018-07-27T18:15:57.539Z,25.33
2018-07-27T18:17:44.937Z,25.17
2018-07-27T18:23:31.373Z,26.22
2018-07-27T18:25:14.374Z,26.13
2018-07-27T18:26:57.026Z,25.97
2018-07-27T18:28:35.717Z,25.85
2018-07-27T18:30:18.403Z,26.22
2018-07-27T18:31:55.239Z,26.57
2018-07-27T18:33:40.424Z,28.51
2018-07-27T18:35:22.258Z,27.59
2018-07-27T18:37:07.776Z,26.69
2018-07-27T18:38:49.710Z,26.86
2018-07-27T18:42:36.046Z,27.07
2018-07-27T18:44:17.440Z,27.84
2018-07-27T18:45:57.494Z,27.77
2018-07-27T18:47:38.693Z,27.10
2018-07-27T18:49:15.683Z,27.59
2018-07-27T18:50:51.354Z,28.68
2018-07-27T18:52:29.436Z,28.57
2018-07-27T18:54:07.118Z,29.18
2018-07-27T18:55:45.713Z,28.85
2018-07-27T18:57:27.705Z,29.01
2018-07-27T18:59:08.173Z,30.16
2018-07-27T19:00:46.797Z,30.41
2018-07-27T19:02:23.283Z,30.82
2018-07-27T19:04:02.276Z,30.50
2018-07-27T19:05:43.423Z,30.73
2018-07-27T19:07:18.703Z,31.35
2018-07-27T19:09:01.784Z,31.39
2018-07-27T19:10:40.704Z,31.98
2018-07-27T19:12:24.160Z,32.15
2018-07-27T19:14:08.892Z,33.01
2018-07-27T19:15:50.867Z,32.85
2018-07-27T19:17:47.206Z,32.84
2018-07-27T19:19:30.280Z,33.23
2018-07-27T19:23:22.293Z,33.20
2018-07-27T19:25:01.463Z,33.74
2018-07-27T19:26:40.283Z,33.55
2018-07-27T19:28:18.397Z,34.39
2018-07-27T19:29:56.752Z,35.15
2018-07-27T19:31:38.168Z,34.45
2018-07-27T19:33:14.193Z,34.37
2018-07-27T19:34:50.217Z,35.58
2018-07-27T19:36:26.176Z,35.62
2018-07-27T19:38:03.713Z,34.98
2018-07-27T19:39:43.386Z,36.04
2018-07-27T19:41:20.749Z,36.59
2018-07-27T19:42:56.811Z,36.39
2018-07-27T19:44:35.056Z,35.52
2018-07-27T19:46:11.534Z,36.38
2018-07-27T19:47:47.273Z,36.77
2018-07-27T19:49:23.153Z,36.47
2018-07-27T19:51:00.404Z,36.58
2018-07-27T19:52:36.782Z,36.47
2018-07-27T19:54:11.966Z,36.46
2018-07-27T19:55:50.043Z,36.74
2018-07-27T19:57:28.803Z,36.32
2018-07-27T19:59:05.328Z,36.55
2018-07-27T20:00:41.837Z,36.99
2018-07-27T20:02:18.307Z,37.34
2018-07-27T20:03:57.892Z,36.73
2018-07-27T20:05:33.334Z,37.49
2018-07-27T20:07:09.701Z,36.95
2018-07-27T20:08:46.983Z,37.86
2018-07-27T20:10:23.652Z,37.83
2018-07-27T20:12:02.832Z,38.14
2018-07-27T20:13:44.283Z,38.27
2018-07-27T20:15:19.895Z,37.64
2018-07-27T20:16:55.923Z,38.05
2018-07-27T20:18:32.312Z,38.29
2018-07-27T20:20:11.112Z,38.09
2018-07-27T20:21:51.513Z,37.73
2018-07-27T20:23:28.804Z,38.90
2018-07-27T20:25:06.302Z,38.36
2018-07-27T20:26:43.049Z,38.67
2018-07-27T20:28:27.054Z,38.84
2018-07-27T20:30:06.414Z,38.59
2018-07-27T20:31:42.672Z,38.58
2018-07-27T20:33:20.670Z,39.48
2018-07-27T20:35:03.437Z,38.81
2018-07-27T20:36:46.018Z,38.92
2018-07-27T20:38:28.346Z,39.68
2018-07-27T20:40:07.075Z,39.56
2018-07-27T20:42:01.881Z,39.83
2018-07-27T20:43:55.055Z,39.89
2018-07-27T20:45:40.262Z,39.11
2018-07-27T20:47:29.745Z,39.12
2018-07-27T20:49:11.880Z,39.91
2018-07-27T20:50:56.133Z,39.88
2018-07-27T20:52:32.544Z,39.86
2018-07-27T20:54:13.375Z,39.40
2018-07-27T20:55:48.797Z,39.61
2018-07-27T20:57:35.865Z,39.98
2018-07-27T21:01:01.178Z,39.36
2018-07-27T21:02:49.067Z,41.10
2018-07-27T21:04:40.886Z,39.99
2018-07-27T21:06:38.376Z,40.07
2018-07-27T21:08:52.170Z,40.87
2018-07-27T21:10:36.049Z,39.85
2018-07-27T21:12:15.435Z,41.09
2018-07-27T21:14:01.373Z,41.33
2018-07-27T21:15:44.760Z,40.96
2018-07-27T21:17:42.115Z,40.49
2018-07-27T21:19:24.668Z,41.32
2018-07-27T21:21:08.471Z,40.67
2018-07-27T21:22:51.834Z,41.45
2018-07-27T21:24:43.954Z,41.76
2018-07-27T21:26:21.058Z,41.25
2018-07-27T21:28:05.327Z,42.03
2018-07-27T21:29:46.941Z,41.76
2018-07-27T21:31:27.420Z,42.46
2018-07-27T21:33:06.612Z,42.40
2018-07-27T21:34:44.033Z,42.14
2018-07-27T21:36:33.686Z,43.02
2018-07-27T21:38:10.181Z,42.67
2018-07-27T21:39:53.076Z,42.90
2018-07-27T21:41:33.077Z,43.57
2018-07-27T21:43:17.283Z,43.22
2018-07-27T21:44:58.095Z,42.72
2018-07-27T21:46:38.949Z,43.11
2018-07-27T21:48:24.343Z,42.55
2018-07-27T21:50:09.637Z,42.72
2018-07-27T21:51:51.412Z,43.11
2018-07-27T21:53:37.890Z,42.82
2018-07-27T21:55:31.233Z,44.14
2018-07-27T21:59:08.116Z,44.00
2018-07-27T22:00:54.435Z,43.99
2018-07-27T22:02:43.671Z,44.29
2018-07-27T22:04:21.290Z,43.86
2018-07-27T22:06:02.909Z,44.31
2018-07-27T22:07:39.897Z,44.61
2018-07-27T22:09:17.648Z,44.64
2018-07-27T22:11:17.618Z,45.29
2018-07-27T22:12:55.625Z,45.95
2018-07-27T22:14:32.280Z,45.67
2018-07-27T22:16:16.633Z,46.02
2018-07-27T22:17:53.260Z,46.02
2018-07-27T22:19:29.284Z,46.03
2018-07-27T22:21:08.292Z,46.20
2018-07-27T22:22:53.236Z,46.17
2018-07-27T22:24:39.308Z,46.28
2018-07-27T22:26:17.573Z,46.16
2018-07-27T22:27:53.874Z,45.81
2018-07-27T22:29:30.862Z,46.61
2018-07-27T22:31:11.757Z,46.45
2018-07-27T22:32:52.734Z,46.09
2018-07-27T22:36:50.885Z,46.24
2018-07-27T22:38:33.560Z,46.10
2018-07-27T22:40:21.942Z,46.69
2018-07-27T22:42:05.440Z,45.68
2018-07-27T22:43:47.385Z,45.87
2018-07-27T22:45:24.137Z,45.73